Time;durP1;ratioP1;P1;durP2;ratioP2;P2;SDS_P1;SDS_P2;PMS_P1;PMS_P2;Temp;Humidity;BMP_temperature;BMP_pressure;BME280_temperature;BME280_humidity;BME280_pressure;Samples;Min_cycle;Max_cycle;Signal;HPM_P1;HPM_P2
2022/09/01 00:01:19;;;;;;;14.40;8.57;;;;;;;;;;5063105;28;20030;-84
2022/09/01 00:03:47;;;;;;;11.35;8.40;;;;;;;;;;5097266;28;20099;-83
2022/09/01 00:06:14;;;;;;;13.30;8.75;;;;;;;;;;5097445;27;20034;-83
2022/09/01 00:08:40;;;;;;;12.57;9.07;;;;;;;;;;5079348;28;20028;-82
2022/09/01 00:11:05;;;;;;;12.32;9.02;;;;;;;;;;5077809;28;20031;-80
2022/09/01 00:13:32;;;;;;;16.17;9.45;;;;;;;;;;5088231;28;20015;-82
2022/09/01 00:16:00;;;;;;;13.85;7.70;;;;;;;;;;5074918;28;20123;-78
2022/09/01 00:18:26;;;;;;;10.23;7.82;;;;;;;;;;5094365;28;20023;-83
2022/09/01 00:20:51;;;;;;;11.77;8.85;;;;;;;;;;5095952;27;20027;-81
2022/09/01 00:23:16;;;;;;;11.85;8.13;;;;;;;;;;5098960;28;20534;-81
2022/09/01 00:25:42;;;;;;;11.73;7.50;;;;;;;;;;5089518;28;20032;-81
2022/09/01 00:28:07;;;;;;;10.80;8.50;;;;;;;;;;5073223;28;20068;-83
2022/09/01 00:30:33;;;;;;;18.80;8.07;;;;;;;;;;5093015;28;20027;-82
2022/09/01 00:32:58;;;;;;;11.63;8.32;;;;;;;;;;5089851;28;20150;-81
2022/09/01 00:35:24;;;;;;;8.98;7.75;;;;;;;;;;5089469;28;20039;-81
2022/09/01 00:37:49;;;;;;;10.70;7.82;;;;;;;;;;5087382;28;20027;-80
2022/09/01 00:40:16;;;;;;;11.10;7.93;;;;;;;;;;5082885;27;20112;-82
2022/09/01 00:42:43;;;;;;;15.20;8.45;;;;;;;;;;5078785;28;20386;-80
2022/09/01 00:45:09;;;;;;;13.48;8.73;;;;;;;;;;5082805;28;20039;-81
2022/09/01 00:47:35;;;;;;;10.20;7.70;;;;;;;;;;5064379;28;20055;-79
2022/09/01 00:50:04;;;;;;;10.25;7.68;;;;;;;;;;5083192;28;20726;-80
2022/09/01 00:52:43;;;;;;;13.13;7.78;;;;;;;;;;5080641;28;20027;-82
2022/09/01 00:55:21;;;;;;;9.20;7.68;;;;;;;;;;5085303;28;20405;-78
2022/09/01 00:57:48;;;;;;;11.30;8.13;;;;;;;;;;5067540;28;20249;-81
2022/09/01 01:00:20;;;;;;;13.27;7.88;;;;;;;;;;5086234;28;20055;-83
2022/09/01 01:02:47;;;;;;;10.90;8.32;;;;;;;;;;5086182;28;20050;-84
2022/09/01 01:05:14;;;;;;;10.30;7.30;;;;;;;;;;5084971;27;20042;-80
2022/09/01 01:07:42;;;;;;;12.00;7.95;;;;;;;;;;5082565;28;20302;-81
2022/09/01 01:10:12;;;;;;;11.82;7.60;;;;;;;;;;5087314;28;20035;-78
2022/09/01 01:12:42;;;;;;;10.48;7.65;;;;;;;;;;5090330;28;20541;-79
2022/09/01 01:15:10;;;;;;;12.77;8.32;;;;;;;;;;5076643;28;20492;-79
2022/09/01 01:17:36;;;;;;;10.98;7.65;;;;;;;;;;5095383;28;20125;-81
2022/09/01 01:23:09;;;;;;;13.57;7.45;;;;;;;;;;5088247;28;20457;-80
2022/09/01 01:25:37;;;;;;;15.88;8.02;;;;;;;;;;5071227;28;20046;-82
2022/09/01 01:28:15;;;;;;;12.40;7.47;;;;;;;;;;5073342;28;20108;-79
2022/09/01 01:30:50;;;;;;;9.73;7.40;;;;;;;;;;5090510;28;20036;-82
2022/09/01 01:33:17;;;;;;;9.20;6.82;;;;;;;;;;5091881;28;20543;-82
2022/09/01 01:35:43;;;;;;;10.63;7.10;;;;;;;;;;5093817;28;20066;-80
2022/09/01 01:38:10;;;;;;;8.73;7.03;;;;;;;;;;5072377;28;20031;-83
2022/09/01 01:40:36;;;;;;;12.93;7.55;;;;;;;;;;5089268;28;20031;-81
2022/09/01 01:43:03;;;;;;;11.23;7.22;;;;;;;;;;5081538;28;20042;-82
2022/09/01 01:45:29;;;;;;;11.18;7.03;;;;;;;;;;5065567;28;20023;-80
2022/09/01 01:47:55;;;;;;;10.80;6.80;;;;;;;;;;5066456;28;20091;-81
2022/09/01 01:50:30;;;;;;;12.35;8.10;;;;;;;;;;5082411;28;20417;-81
2022/09/01 01:52:58;;;;;;;10.32;7.18;;;;;;;;;;5065581;28;20034;-84
2022/09/01 01:55:27;;;;;;;9.73;6.75;;;;;;;;;;5088960;27;20039;-78
2022/09/01 01:57:53;;;;;;;12.55;6.95;;;;;;;;;;5068535;28;20036;-83
2022/09/01 02:00:22;;;;;;;10.32;7.85;;;;;;;;;;5067173;28;20027;-81
2022/09/01 02:02:53;;;;;;;10.60;7.72;;;;;;;;;;5063049;27;21080;-79
2022/09/01 02:05:29;;;;;;;11.23;7.53;;;;;;;;;;5086635;28;20102;-81
2022/09/01 02:07:58;;;;;;;9.30;6.38;;;;;;;;;;5088706;28;20027;-83
2022/09/01 02:10:28;;;;;;;14.52;8.00;;;;;;;;;;5086988;28;20027;-78
2022/09/01 02:12:53;;;;;;;11.23;8.15;;;;;;;;;;5074758;27;20027;-83
2022/09/01 02:15:19;;;;;;;13.25;8.20;;;;;;;;;;5074322;28;20092;-81
2022/09/01 02:17:45;;;;;;;10.77;7.03;;;;;;;;;;5093566;27;20714;-84
2022/09/01 02:20:15;;;;;;;13.00;8.43;;;;;;;;;;5088299;28;20118;-82
2022/09/01 02:22:43;;;;;;;13.95;8.07;;;;;;;;;;5072363;28;21308;-80
2022/09/01 02:25:09;;;;;;;11.77;8.45;;;;;;;;;;5089109;27;20027;-79
2022/09/01 02:27:38;;;;;;;12.35;8.90;;;;;;;;;;5094616;28;20110;-81
2022/09/01 02:30:05;;;;;;;12.43;8.20;;;;;;;;;;5091057;28;20028;-80
2022/09/01 02:32:31;;;;;;;12.25;8.30;;;;;;;;;;5075479;28;20026;-80
2022/09/01 02:35:00;;;;;;;14.48;9.52;;;;;;;;;;5089672;28;20027;-84
2022/09/01 02:37:25;;;;;;;11.70;8.23;;;;;;;;;;5094162;27;20038;-79
2022/09/01 02:39:52;;;;;;;11.68;7.70;;;;;;;;;;5097662;27;20024;-83
2022/09/01 02:42:23;;;;;;;11.85;8.50;;;;;;;;;;5075349;28;20019;-78
2022/09/01 02:44:48;;;;;;;11.52;8.52;;;;;;;;;;5094084;28;20043;-80
2022/09/01 02:47:14;;;;;;;13.32;8.88;;;;;;;;;;5079746;28;20393;-83
2022/09/01 02:49:41;;;;;;;10.38;8.25;;;;;;;;;;5095058;27;20031;-80
2022/09/01 02:52:07;;;;;;;11.18;8.07;;;;;;;;;;5093177;28;20055;-82
2022/09/01 02:54:32;;;;;;;11.88;8.60;;;;;;;;;;5094398;27;20114;-81
2022/09/01 02:56:58;;;;;;;12.77;8.23;;;;;;;;;;5095306;27;20555;-78
2022/09/01 02:59:26;;;;;;;14.48;8.23;;;;;;;;;;5098391;28;20525;-82
2022/09/01 03:01:52;;;;;;;11.55;8.52;;;;;;;;;;5079365;28;20032;-82
2022/09/01 03:04:19;;;;;;;15.07;8.50;;;;;;;;;;5077031;28;20738;-78
2022/09/01 03:06:45;;;;;;;12.10;8.57;;;;;;;;;;5085579;28;20103;-80
2022/09/01 03:09:14;;;;;;;11.80;8.77;;;;;;;;;;5083016;27;20033;-80
2022/09/01 03:11:53;;;;;;;11.57;8.55;;;;;;;;;;5086901;28;21149;-79
2022/09/01 03:14:19;;;;;;;12.80;8.40;;;;;;;;;;5082719;28;20486;-82
2022/09/01 03:16:45;;;;;;;13.32;9.30;;;;;;;;;;5085466;27;20039;-84
2022/09/01 03:19:11;;;;;;;12.18;8.95;;;;;;;;;;5087545;28;20023;-80
2022/09/01 03:21:39;;;;;;;11.68;9.00;;;;;;;;;;5069080;28;20277;-84
2022/09/01 03:24:11;;;;;;;14.32;9.27;;;;;;;;;;5085884;28;20031;-81
2022/09/01 03:26:36;;;;;;;14.38;9.77;;;;;;;;;;5102037;28;20024;-79
2022/09/01 03:29:02;;;;;;;15.32;9.85;;;;;;;;;;5085500;28;20813;-79
2022/09/01 03:31:28;;;;;;;15.73;10.73;;;;;;;;;;5101425;28;20172;-79
2022/09/01 03:33:55;;;;;;;15.63;9.90;;;;;;;;;;5094261;27;20036;-81
2022/09/01 03:36:24;;;;;;;13.60;8.57;;;;;;;;;;5091724;28;20046;-84
2022/09/01 03:38:51;;;;;;;11.48;8.88;;;;;;;;;;5090237;28;20170;-85
2022/09/01 03:41:21;;;;;;;16.77;10.30;;;;;;;;;;5088812;27;20028;-83
2022/09/01 03:43:47;;;;;;;17.20;9.55;;;;;;;;;;5088673;28;20047;-81
2022/09/01 03:46:20;;;;;;;14.88;9.80;;;;;;;;;;5087554;27;20035;-85
2022/09/01 03:48:49;;;;;;;13.38;9.68;;;;;;;;;;5093308;28;20030;-77
2022/09/01 03:51:14;;;;;;;15.48;10.02;;;;;;;;;;5093019;28;20028;-82
2022/09/01 03:53:40;;;;;;;17.73;9.73;;;;;;;;;;5092126;28;20062;-84
2022/09/01 03:56:06;;;;;;;10.63;8.60;;;;;;;;;;5094110;27;20479;-82
2022/09/01 03:58:31;;;;;;;12.75;9.50;;;;;;;;;;5092804;28;20016;-82
2022/09/01 04:01:00;;;;;;;15.55;10.10;;;;;;;;;;5091265;28;20135;-82
2022/09/01 04:03:30;;;;;;;14.35;9.38;;;;;;;;;;5072923;28;20499;-83
2022/09/01 04:05:57;;;;;;;14.50;10.02;;;;;;;;;;5089085;28;20702;-79
2022/09/01 04:08:30;;;;;;;12.90;9.85;;;;;;;;;;5085737;28;20110;-84
2022/09/01 04:10:57;;;;;;;15.38;9.60;;;;;;;;;;5096578;28;20032;-81
2022/09/01 04:13:29;;;;;;;15.68;10.95;;;;;;;;;;5093267;28;20023;-80
2022/09/01 04:15:56;;;;;;;17.30;10.30;;;;;;;;;;5093423;28;20040;-79
2022/09/01 04:18:22;;;;;;;14.30;9.88;;;;;;;;;;5074570;28;20027;-83
2022/09/01 04:20:58;;;;;;;16.25;10.20;;;;;;;;;;5073199;28;20043;-78
2022/09/01 04:23:32;;;;;;;14.07;10.20;;;;;;;;;;5108243;27;20023;-77
2022/09/01 04:26:08;;;;;;;13.48;9.40;;;;;;;;;;5094965;28;20031;-77
2022/09/01 04:28:37;;;;;;;12.05;8.98;;;;;;;;;;5107836;28;20023;-83
2022/09/01 04:31:07;;;;;;;15.73;10.25;;;;;;;;;;5074732;28;20054;-78
2022/09/01 04:33:38;;;;;;;15.38;9.73;;;;;;;;;;5074224;28;20714;-79
2022/09/01 04:36:26;;;;;;;19.65;10.48;;;;;;;;;;5093474;28;20032;-78
2022/09/01 04:38:56;;;;;;;14.57;9.98;;;;;;;;;;5072952;28;20798;-83
2022/09/01 04:41:24;;;;;;;11.52;8.93;;;;;;;;;;5093390;28;21246;-83
2022/09/01 04:43:51;;;;;;;14.23;9.77;;;;;;;;;;5095571;28;20075;-83
2022/09/01 04:46:18;;;;;;;14.50;10.48;;;;;;;;;;5092561;28;20030;-80
2022/09/01 04:48:44;;;;;;;17.42;11.32;;;;;;;;;;5074766;28;20027;-83
2022/09/01 04:51:11;;;;;;;15.45;10.07;;;;;;;;;;5093687;28;20056;-84
2022/09/01 04:53:38;;;;;;;15.57;10.57;;;;;;;;;;5074216;28;20020;-80
2022/09/01 04:56:04;;;;;;;17.58;10.85;;;;;;;;;;5079132;28;20361;-85
2022/09/01 04:58:30;;;;;;;15.55;10.60;;;;;;;;;;5095606;28;20436;-84
2022/09/01 05:00:55;;;;;;;15.48;10.55;;;;;;;;;;5102079;28;20485;-82
2022/09/01 05:03:22;;;;;;;16.08;10.98;;;;;;;;;;5104212;28;20027;-84
2022/09/01 05:05:48;;;;;;;13.82;10.20;;;;;;;;;;5100759;28;20032;-81
2022/09/01 05:08:19;;;;;;;15.27;10.10;;;;;;;;;;5095477;28;20507;-82
2022/09/01 05:10:51;;;;;;;18.38;10.65;;;;;;;;;;5087611;28;20090;-84
2022/09/01 05:13:17;;;;;;;16.55;10.27;;;;;;;;;;5089538;28;20046;-84
2022/09/01 05:15:47;;;;;;;13.55;10.30;;;;;;;;;;5085225;28;20067;-82
2022/09/01 05:18:22;;;;;;;15.73;11.02;;;;;;;;;;5090328;28;20035;-84
2022/09/01 05:20:48;;;;;;;15.05;9.88;;;;;;;;;;5086557;28;20031;-79
2022/09/01 05:23:17;;;;;;;14.63;10.40;;;;;;;;;;5067779;28;20024;-81
2022/09/01 05:25:44;;;;;;;15.48;10.77;;;;;;;;;;5084800;28;20401;-84
2022/09/01 05:28:13;;;;;;;15.98;10.27;;;;;;;;;;5080003;28;20093;-84
2022/09/01 05:30:40;;;;;;;16.90;10.88;;;;;;;;;;5085440;27;20080;-82
2022/09/01 05:33:10;;;;;;;16.77;10.57;;;;;;;;;;5087132;28;20027;-84
2022/09/01 05:35:37;;;;;;;14.13;9.88;;;;;;;;;;5090396;28;20043;-82
2022/09/01 05:38:03;;;;;;;18.27;11.50;;;;;;;;;;5068663;28;20473;-82
2022/09/01 05:40:29;;;;;;;15.07;10.68;;;;;;;;;;5093418;28;20043;-83
2022/09/01 05:42:54;;;;;;;14.20;9.60;;;;;;;;;;5094383;28;20024;-83
2022/09/01 05:45:25;;;;;;;15.45;10.43;;;;;;;;;;5090512;27;20043;-84
2022/09/01 05:47:53;;;;;;;14.90;9.88;;;;;;;;;;5093361;28;20019;-83
2022/09/01 05:50:19;;;;;;;15.77;10.63;;;;;;;;;;5092060;28;20158;-83
2022/09/01 05:52:46;;;;;;;14.48;10.70;;;;;;;;;;5094774;28;20463;-84
2022/09/01 05:55:14;;;;;;;14.73;10.60;;;;;;;;;;5104102;27;20032;-84
2022/09/01 05:57:39;;;;;;;16.13;10.88;;;;;;;;;;5085959;28;20104;-82
2022/09/01 06:00:12;;;;;;;14.77;11.55;;;;;;;;;;5108732;27;20027;-85
2022/09/01 06:02:38;;;;;;;18.15;12.60;;;;;;;;;;5106589;27;20048;-84
2022/09/01 06:05:05;;;;;;;23.48;11.85;;;;;;;;;;5088164;28;20042;-85
2022/09/01 06:07:31;;;;;;;20.33;11.52;;;;;;;;;;5114192;27;20125;-84
2022/09/01 06:09:58;;;;;;;20.52;11.60;;;;;;;;;;5110044;27;20023;-83
2022/09/01 06:12:24;;;;;;;17.02;10.80;;;;;;;;;;5105036;28;20030;-80
2022/09/01 06:14:52;;;;;;;17.02;10.95;;;;;;;;;;5104365;27;20032;-83
2022/09/01 06:17:23;;;;;;;18.75;11.55;;;;;;;;;;5115004;28;20031;-83
2022/09/01 06:19:49;;;;;;;15.57;10.32;;;;;;;;;;5108817;28;20359;-83
2022/09/01 06:22:15;;;;;;;16.83;10.52;;;;;;;;;;5107298;28;20053;-86
2022/09/01 06:24:41;;;;;;;17.98;11.82;;;;;;;;;;5114053;28;20034;-85
2022/09/01 06:27:10;;;;;;;21.85;12.13;;;;;;;;;;5115167;27;20113;-86
2022/09/01 06:29:38;;;;;;;16.90;11.57;;;;;;;;;;5105331;27;20031;-83
2022/09/01 06:32:08;;;;;;;15.32;11.13;;;;;;;;;;5111011;28;20023;-84
2022/09/01 06:34:34;;;;;;;18.52;11.20;;;;;;;;;;5091913;28;20517;-85
2022/09/01 06:37:00;;;;;;;18.48;11.20;;;;;;;;;;5105286;28;20031;-84
2022/09/01 06:39:25;;;;;;;13.85;10.13;;;;;;;;;;5117799;28;20495;-85
2022/09/01 06:41:54;;;;;;;15.68;10.70;;;;;;;;;;5118366;28;20027;-85
2022/09/01 06:44:23;;;;;;;13.80;9.80;;;;;;;;;;5121337;27;20020;-85
2022/09/01 06:46:52;;;;;;;13.27;9.27;;;;;;;;;;5114848;27;20023;-85
2022/09/01 06:49:20;;;;;;;18.30;9.15;;;;;;;;;;5120262;28;20032;-86
2022/09/01 06:51:50;;;;;;;12.02;8.70;;;;;;;;;;5094878;28;20034;-83
2022/09/01 06:54:16;;;;;;;12.93;8.80;;;;;;;;;;5120820;27;20024;-82
2022/09/01 06:56:42;;;;;;;12.95;8.95;;;;;;;;;;5118099;28;20031;-85
2022/09/01 06:59:08;;;;;;;9.95;8.15;;;;;;;;;;5117431;27;20442;-84
2022/09/01 07:01:36;;;;;;;10.73;8.27;;;;;;;;;;5119508;27;20035;-85
2022/09/01 07:04:01;;;;;;;10.65;7.50;;;;;;;;;;5112548;27;20370;-84
2022/09/01 07:06:28;;;;;;;12.45;7.72;;;;;;;;;;5105102;28;20051;-85
2022/09/01 07:08:54;;;;;;;11.07;8.02;;;;;;;;;;5098549;28;20025;-84
2022/09/01 07:11:26;;;;;;;12.60;8.02;;;;;;;;;;5127324;27;20103;-83
2022/09/01 07:13:54;;;;;;;12.48;8.13;;;;;;;;;;5116035;28;20092;-84
2022/09/01 07:16:22;;;;;;;10.38;7.85;;;;;;;;;;5123898;27;20031;-81
2022/09/01 07:18:49;;;;;;;10.55;8.20;;;;;;;;;;5138217;27;20023;-84
2022/09/01 07:21:15;;;;;;;16.15;8.50;;;;;;;;;;5138703;27;20027;-84
2022/09/01 07:23:42;;;;;;;11.98;8.07;;;;;;;;;;5118574;28;20023;-83
2022/09/01 07:26:09;;;;;;;11.90;7.75;;;;;;;;;;5118644;27;20046;-84
2022/09/01 07:28:35;;;;;;;11.52;7.57;;;;;;;;;;5091856;28;20027;-84
2022/09/01 07:31:04;;;;;;;10.50;7.60;;;;;;;;;;5128731;27;20015;-82
2022/09/01 07:33:30;;;;;;;15.80;8.25;;;;;;;;;;5083835;28;20024;-81
2022/09/01 07:35:57;;;;;;;10.23;7.60;;;;;;;;;;5115009;28;20102;-81
2022/09/01 07:38:27;;;;;;;12.57;8.80;;;;;;;;;;5114474;28;20027;-82
2022/09/01 07:40:53;;;;;;;9.65;7.05;;;;;;;;;;5116585;28;20020;-82
2022/09/01 07:43:23;;;;;;;11.15;7.90;;;;;;;;;;5116651;28;20044;-81
2022/09/01 07:45:51;;;;;;;11.90;7.88;;;;;;;;;;5117839;27;20031;-80
2022/09/01 07:48:21;;;;;;;11.40;7.85;;;;;;;;;;5130893;27;20042;-81
2022/09/01 07:50:49;;;;;;;10.27;7.53;;;;;;;;;;5129071;27;20083;-81
2022/09/01 07:53:21;;;;;;;10.23;7.35;;;;;;;;;;5121432;27;20492;-81
2022/09/01 07:55:49;;;;;;;10.18;6.60;;;;;;;;;;5124502;27;20031;-81
2022/09/01 07:58:17;;;;;;;11.25;6.35;;;;;;;;;;5119215;27;20545;-82
2022/09/01 08:00:44;;;;;;;11.25;7.60;;;;;;;;;;5128756;27;20020;-81
2022/09/01 08:03:10;;;;;;;9.93;7.10;;;;;;;;;;5119050;28;20035;-83
2022/09/01 08:05:36;;;;;;;9.30;7.00;;;;;;;;;;5100133;28;20023;-82
2022/09/01 08:08:01;;;;;;;11.77;6.97;;;;;;;;;;5098401;28;20098;-80
2022/09/01 08:10:27;;;;;;;8.63;6.18;;;;;;;;;;5115988;28;20047;-82
2022/09/01 08:12:53;;;;;;;8.70;6.40;;;;;;;;;;5116994;27;20024;-82
2022/09/01 08:15:18;;;;;;;8.98;6.00;;;;;;;;;;5090701;28;20169;-82
2022/09/01 08:17:44;;;;;;;7.70;6.00;;;;;;;;;;5110607;28;20031;-81
2022/09/01 08:20:10;;;;;;;7.53;6.05;;;;;;;;;;5110137;28;20902;-82
2022/09/01 08:22:36;;;;;;;8.60;5.70;;;;;;;;;;5092342;28;20546;-82
2022/09/01 08:25:05;;;;;;;8.68;5.85;;;;;;;;;;5113621;28;20542;-82
2022/09/01 08:27:32;;;;;;;9.70;6.13;;;;;;;;;;5112259;28;20099;-82
2022/09/01 08:29:59;;;;;;;7.18;5.55;;;;;;;;;;5112042;28;20016;-82
2022/09/01 08:32:24;;;;;;;8.75;5.88;;;;;;;;;;5113448;28;20031;-82
2022/09/01 08:34:50;;;;;;;8.50;6.25;;;;;;;;;;5112131;28;20184;-82
2022/09/01 08:37:17;;;;;;;9.82;5.75;;;;;;;;;;5092834;28;20031;-82
2022/09/01 08:39:42;;;;;;;9.30;6.53;;;;;;;;;;5111751;28;20442;-82
2022/09/01 08:42:23;;;;;;;8.70;6.13;;;;;;;;;;5094066;28;20032;-82
2022/09/01 08:45:08;;;;;;;9.88;5.47;;;;;;;;;;5112101;28;20080;-82
2022/09/01 08:47:34;;;;;;;6.97;4.70;;;;;;;;;;5090617;28;20650;-82
2022/09/01 08:50:00;;;;;;;7.63;5.53;;;;;;;;;;5110684;27;20065;-81
2022/09/01 08:52:34;;;;;;;8.95;6.10;;;;;;;;;;5089364;28;20196;-82
2022/09/01 08:55:11;;;;;;;8.55;6.07;;;;;;;;;;5095194;28;20019;-81
2022/09/01 08:57:39;;;;;;;6.40;4.78;;;;;;;;;;5116401;28;20062;-81
2022/09/01 09:00:09;;;;;;;6.95;4.20;;;;;;;;;;5113911;28;20331;-82
2022/09/01 09:02:59;;;;;;;6.25;4.10;;;;;;;;;;5095314;28;20381;-83
2022/09/01 09:05:43;;;;;;;5.55;4.22;;;;;;;;;;5095891;28;20051;-82
2022/09/01 09:08:32;;;;;;;5.43;4.00;;;;;;;;;;5096480;28;20405;-83
2022/09/01 09:11:05;;;;;;;4.57;3.78;;;;;;;;;;5110999;28;20031;-83
2022/09/01 09:13:33;;;;;;;8.18;3.28;;;;;;;;;;5093327;28;20370;-82
2022/09/01 09:16:17;;;;;;;4.25;3.50;;;;;;;;;;5111091;28;20023;-82
2022/09/01 09:19:07;;;;;;;7.20;2.95;;;;;;;;;;5109959;28;20020;-83
2022/09/01 09:21:43;;;;;;;6.55;3.53;;;;;;;;;;5113586;28;20081;-83
2022/09/01 09:24:28;;;;;;;3.80;3.40;;;;;;;;;;5112295;28;20015;-81
2022/09/01 09:26:57;;;;;;;5.70;3.85;;;;;;;;;;5094172;28;20027;-82
2022/09/01 09:29:24;;;;;;;5.07;3.70;;;;;;;;;;5081565;28;20394;-82
2022/09/01 09:32:03;;;;;;;7.00;4.10;;;;;;;;;;5115010;28;20030;-83
2022/09/01 09:34:36;;;;;;;5.80;4.35;;;;;;;;;;5127318;28;20028;-83
2022/09/01 09:37:29;;;;;;;5.05;3.58;;;;;;;;;;5112281;28;20030;-82
2022/09/01 09:40:18;;;;;;;6.60;4.03;;;;;;;;;;5101655;28;20057;-82
2022/09/01 09:42:55;;;;;;;4.35;3.40;;;;;;;;;;5113937;28;20423;-83
2022/09/01 09:45:34;;;;;;;4.03;3.40;;;;;;;;;;5116563;28;20024;-84
2022/09/01 09:48:09;;;;;;;5.07;3.60;;;;;;;;;;5126602;28;20023;-83
2022/09/01 09:50:37;;;;;;;7.85;4.30;;;;;;;;;;5106452;28;20023;-82
2022/09/01 09:53:25;;;;;;;6.78;3.33;;;;;;;;;;5121177;28;20035;-82
2022/09/01 09:55:57;;;;;;;5.40;3.55;;;;;;;;;;5138300;28;20011;-81
2022/09/01 09:58:25;;;;;;;;;;;;;;;;;;5142543;28;20027;-83
2022/09/01 10:01:22;;;;;;;3.78;3.28;;;;;;;;;;5113393;28;19999;-83
2022/09/01 10:03:51;;;;;;;4.03;3.15;;;;;;;;;;5092546;28;20106;-84
2022/09/01 10:06:34;;;;;;;5.72;3.40;;;;;;;;;;5094423;28;20028;-83
2022/09/01 10:09:06;;;;;;;3.17;2.53;;;;;;;;;;5119974;28;20033;-83
2022/09/01 10:11:41;;;;;;;4.65;3.20;;;;;;;;;;5114314;28;20501;-83
2022/09/01 10:14:26;;;;;;;6.72;3.25;;;;;;;;;;5118904;28;20103;-83
2022/09/01 10:17:12;;;;;;;4.85;3.38;;;;;;;;;;5092892;28;20397;-83
2022/09/01 10:19:44;;;;;;;3.72;3.00;;;;;;;;;;5104602;28;20545;-83
2022/09/01 10:22:12;;;;;;;4.93;2.97;;;;;;;;;;5125926;28;20023;-83
2022/09/01 10:24:38;;;;;;;4.38;3.10;;;;;;;;;;5103349;28;20011;-82
2022/09/01 10:27:16;;;;;;;3.63;2.92;;;;;;;;;;5093250;28;20023;-83
2022/09/01 10:29:50;;;;;;;3.15;2.70;;;;;;;;;;5103164;28;20081;-82
2022/09/01 10:32:23;;;;;;;6.25;3.00;;;;;;;;;;5100273;28;20024;-81
2022/09/01 10:34:50;;;;;;;3.17;2.88;;;;;;;;;;5100482;27;20031;-84
2022/09/01 10:37:16;;;;;;;3.63;3.22;;;;;;;;;;5097583;28;20038;-82
2022/09/01 10:40:15;;;;;;;3.90;2.83;;;;;;;;;;5129230;27;20027;-85
2022/09/01 10:42:44;;;;;;;3.58;2.90;;;;;;;;;;5105032;28;20088;-82
2022/09/01 10:45:21;;;;;;;3.03;2.55;;;;;;;;;;5105934;28;20028;-80
2022/09/01 10:47:47;;;;;;;5.63;3.20;;;;;;;;;;5135714;27;20115;-82
2022/09/01 10:50:31;;;;;;;4.03;2.95;;;;;;;;;;5113140;28;20107;-83
2022/09/01 10:53:05;;;;;;;5.05;3.75;;;;;;;;;;5102953;28;20027;-83
2022/09/01 10:55:40;;;;;;;5.15;3.40;;;;;;;;;;5094004;28;20122;-83
2022/09/01 10:59:02;;;;;;;4.90;2.80;;;;;;;;;;5121799;27;20035;-83
2022/09/01 11:01:42;;;;;;;4.45;3.17;;;;;;;;;;5053734;28;20029;-88
2022/09/01 11:04:13;;;;;;;5.18;2.80;;;;;;;;;;5055387;28;20430;-83
2022/09/01 11:06:38;;;;;;;2.60;2.40;;;;;;;;;;5089456;28;20093;-83
2022/09/01 11:09:06;;;;;;;4.47;2.50;;;;;;;;;;5099792;27;20028;-81
2022/09/01 11:11:44;;;;;;;3.40;2.47;;;;;;;;;;5104062;27;20043;-83
2022/09/01 11:14:20;;;;;;;3.60;2.60;;;;;;;;;;5100532;28;20031;-83
2022/09/01 11:17:12;;;;;;;4.32;2.70;;;;;;;;;;5102773;28;20026;-82
2022/09/01 11:19:59;;;;;;;3.67;2.42;;;;;;;;;;5092060;28;20089;-83
2022/09/01 11:22:29;;;;;;;4.93;2.53;;;;;;;;;;5084333;28;20032;-83
2022/09/01 11:25:09;;;;;;;3.47;2.45;;;;;;;;;;5113213;28;20087;-82
2022/09/01 11:27:46;;;;;;;4.20;3.08;;;;;;;;;;5123790;28;20036;-83
2022/09/01 11:30:16;;;;;;;3.22;2.55;;;;;;;;;;5105600;28;20031;-83
2022/09/01 11:32:44;;;;;;;3.22;2.70;;;;;;;;;;5123596;28;20076;-82
2022/09/01 11:35:20;;;;;;;2.90;2.60;;;;;;;;;;5125300;28;20061;-81
2022/09/01 11:37:50;;;;;;;2.50;2.30;;;;;;;;;;5125016;28;20020;-83
2022/09/01 11:40:26;;;;;;;3.70;2.22;;;;;;;;;;5127782;27;20075;-82
2022/09/01 11:42:53;;;;;;;3.33;2.30;;;;;;;;;;5122368;27;20030;-83
2022/09/01 11:45:22;;;;;;;2.65;2.20;;;;;;;;;;5112895;28;20065;-83
2022/09/01 11:47:51;;;;;;;2.33;2.13;;;;;;;;;;5133252;27;20020;-83
2022/09/01 11:50:25;;;;;;;2.75;2.47;;;;;;;;;;5103381;28;20023;-84
2022/09/01 11:52:57;;;;;;;2.38;2.17;;;;;;;;;;5116913;28;20023;-83
2022/09/01 11:55:41;;;;;;;2.50;2.30;;;;;;;;;;5116920;28;20040;-83
2022/09/01 11:58:27;;;;;;;2.30;2.10;;;;;;;;;;5111643;28;20378;-82
2022/09/01 12:00:55;;;;;;;2.58;2.30;;;;;;;;;;5097214;28;20023;-83
2022/09/01 12:03:22;;;;;;;3.80;2.50;;;;;;;;;;5099427;28;20427;-83
2022/09/01 12:05:58;;;;;;;2.38;2.17;;;;;;;;;;5097548;28;20020;-83
2022/09/01 12:08:25;;;;;;;3.35;2.28;;;;;;;;;;5087750;28;20028;-82
2022/09/01 12:11:03;;;;;;;2.55;2.10;;;;;;;;;;5092830;28;20030;-82
2022/09/01 12:13:28;;;;;;;2.47;2.15;;;;;;;;;;5119169;28;20034;-82
2022/09/01 12:15:56;;;;;;;2.30;2.10;;;;;;;;;;5122881;27;20023;-82
2022/09/01 12:18:34;;;;;;;2.65;1.92;;;;;;;;;;5131881;27;20030;-82
2022/09/01 12:21:01;;;;;;;4.22;2.20;;;;;;;;;;5104976;28;20025;-83
2022/09/01 12:23:28;;;;;;;2.92;2.20;;;;;;;;;;5122667;28;20385;-82
2022/09/01 12:25:56;;;;;;;3.85;2.10;;;;;;;;;;5123845;28;20023;-83
2022/09/01 12:28:23;;;;;;;4.45;2.28;;;;;;;;;;5122136;28;20076;-82
2022/09/01 12:30:50;;;;;;;2.70;2.20;;;;;;;;;;5104483;28;20161;-82
2022/09/01 12:33:18;;;;;;;2.20;2.00;;;;;;;;;;5112563;28;20035;-82
2022/09/01 12:35:44;;;;;;;2.38;2.17;;;;;;;;;;5117934;27;20059;-83
2022/09/01 12:38:21;;;;;;;3.13;2.45;;;;;;;;;;5121334;27;20030;-83
2022/09/01 12:40:49;;;;;;;5.78;2.40;;;;;;;;;;5112509;28;20038;-82
2022/09/01 12:43:36;;;;;;;2.53;2.15;;;;;;;;;;5111661;28;20024;-81
2022/09/01 12:46:03;;;;;;;2.70;2.15;;;;;;;;;;5120121;27;20150;-82
2022/09/01 12:48:38;;;;;;;2.65;1.98;;;;;;;;;;5099315;28;20104;-84
2022/09/01 12:51:24;;;;;;;2.90;2.00;;;;;;;;;;5095793;28;20095;-84
2022/09/01 12:53:55;;;;;;;7.25;2.45;;;;;;;;;;5100112;28;20067;-82
2022/09/01 12:56:24;;;;;;;;;;;;;;;;;;5119963;28;20035;-82
2022/09/01 12:58:52;;;;;;;4.00;2.50;;;;;;;;;;5123673;27;19934;-81
2022/09/01 13:01:30;;;;;;;4.30;2.45;;;;;;;;;;5097648;28;20108;-82
2022/09/01 13:04:27;;;;;;;2.53;2.30;;;;;;;;;;5099096;28;20024;-83
2022/09/01 13:07:02;;;;;;;2.55;2.30;;;;;;;;;;5112731;28;20023;-81
2022/09/01 13:09:28;;;;;;;3.50;2.20;;;;;;;;;;5115538;28;20023;-82
2022/09/01 13:12:27;;;;;;;2.55;2.35;;;;;;;;;;5118649;28;20023;-82
2022/09/01 13:14:53;;;;;;;4.32;2.92;;;;;;;;;;5100961;28;20079;-80
2022/09/01 13:17:18;;;;;;;3.20;2.53;;;;;;;;;;5125284;27;20027;-80
2022/09/01 13:19:43;;;;;;;5.15;2.28;;;;;;;;;;5128538;27;20031;-81
2022/09/01 13:22:09;;;;;;;4.35;2.63;;;;;;;;;;5123336;27;20114;-81
2022/09/01 13:24:34;;;;;;;2.85;2.33;;;;;;;;;;5123639;28;20041;-81
2022/09/01 13:27:00;;;;;;;2.53;2.33;;;;;;;;;;5119914;28;20042;-84
2022/09/01 13:29:25;;;;;;;4.00;2.58;;;;;;;;;;5120505;28;20031;-82
2022/09/01 13:31:50;;;;;;;5.28;2.50;;;;;;;;;;5115357;28;20026;-83
2022/09/01 13:34:16;;;;;;;3.60;2.50;;;;;;;;;;5098486;28;20032;-85
2022/09/01 13:36:41;;;;;;;5.00;2.90;;;;;;;;;;5115433;28;20020;-81
2022/09/01 13:39:06;;;;;;;3.00;2.70;;;;;;;;;;5115844;28;20107;-82
2022/09/01 13:41:32;;;;;;;3.50;2.67;;;;;;;;;;5121017;28;20035;-83
2022/09/01 13:43:57;;;;;;;4.30;3.15;;;;;;;;;;5108708;28;20397;-82
2022/09/01 13:46:23;;;;;;;3.20;2.85;;;;;;;;;;5109708;28;20050;-83
2022/09/01 13:48:48;;;;;;;2.63;2.40;;;;;;;;;;5110877;28;20031;-83
2022/09/01 13:51:25;;;;;;;2.92;2.53;;;;;;;;;;5095182;28;20027;-82
2022/09/01 13:53:51;;;;;;;2.28;2.08;;;;;;;;;;5094094;28;20035;-83
2022/09/01 13:56:16;;;;;;;3.22;2.33;;;;;;;;;;5093405;28;20042;-85
2022/09/01 13:58:41;;;;;;;4.05;2.53;;;;;;;;;;5118186;27;20027;-82
2022/09/01 14:01:07;;;;;;;3.83;2.25;;;;;;;;;;5115873;28;20144;-85
2022/09/01 14:03:32;;;;;;;2.88;2.58;;;;;;;;;;5098590;28;20065;-85
2022/09/01 14:05:57;;;;;;;3.72;2.30;;;;;;;;;;5114629;27;20023;-86
2022/09/01 14:08:23;;;;;;;4.80;2.40;;;;;;;;;;5114283;27;20067;-84
2022/09/01 14:10:51;;;;;;;2.45;1.92;;;;;;;;;;5102316;27;20019;-83
2022/09/01 14:13:19;;;;;;;2.20;2.00;;;;;;;;;;5089255;28;20597;-84
2022/09/01 14:15:45;;;;;;;2.05;1.95;;;;;;;;;;5117964;27;20122;-83
2022/09/01 14:18:12;;;;;;;2.85;2.22;;;;;;;;;;5098611;27;20049;-85
2022/09/01 14:20:41;;;;;;;2.30;2.10;;;;;;;;;;5107576;28;20022;-84
2022/09/01 14:23:07;;;;;;;2.38;2.17;;;;;;;;;;5090547;28;20439;-85
2022/09/01 14:25:33;;;;;;;3.03;2.17;;;;;;;;;;5121717;27;20035;-83
2022/09/01 14:28:00;;;;;;;4.20;2.50;;;;;;;;;;5122396;27;20031;-83
2022/09/01 14:30:28;;;;;;;2.42;2.00;;;;;;;;;;5120080;28;20028;-84
2022/09/01 14:32:53;;;;;;;2.33;2.00;;;;;;;;;;5110396;28;20031;-85
2022/09/01 14:35:23;;;;;;;2.60;2.25;;;;;;;;;;5095121;28;20061;-85
2022/09/01 14:37:49;;;;;;;3.25;2.45;;;;;;;;;;5082036;28;20031;-84
2022/09/01 14:40:17;;;;;;;2.70;2.40;;;;;;;;;;5086516;28;20095;-85
2022/09/01 14:42:47;;;;;;;2.17;1.98;;;;;;;;;;5105064;27;20023;-84
2022/09/01 14:45:17;;;;;;;2.47;2.28;;;;;;;;;;5121541;27;20027;-84
2022/09/01 14:47:43;;;;;;;4.10;2.20;;;;;;;;;;5129486;27;20035;-84
2022/09/01 14:50:09;;;;;;;2.75;2.20;;;;;;;;;;5128318;27;20106;-83
2022/09/01 14:52:36;;;;;;;3.15;1.95;;;;;;;;;;5126662;27;20367;-85
2022/09/01 14:55:02;;;;;;;2.15;2.00;;;;;;;;;;5122580;28;20019;-84